x

Fairport, Mi (fptm4) Weather Station

3:40pm - Tue 27th Jan 2015 All times are CST. -6 hours from GMT.

  • Wind
    1mph, 2mph gusts
  • Air Temp 25°f
  • Sea Pressure 1024mb
  • Fairport, Mi
  • Fairport, Mi

More Historic Weather Station data

Upgrade to MSW Pro to gain access to the past 30 days of data for over 8000 Wavebouys and Weather Stations around the globe.

Join Pro

Comparision Forecast

View Surf forecast
   
Tue 01/27 3:40pm 1 2 mph 1024mb 25f
3:30pm 2
mph
1024mb 27f
3:20pm 2 5 mph 1023.7mb 27f
3:10pm 3 6 mph 1023.7mb 25f
3:00pm 5 6 mph 1023.7mb 23f
2:40pm 7 8 mph 1023.7mb 22f
2:30pm 5 6 mph 1023.7mb 24f
2:20pm 5 6 mph 1023.7mb 25f
2:10pm 2 3 mph 1023.4mb 25f
2:00pm 5 6 mph 1023.4mb 25f
1:40pm 3 6 mph 1023.4mb 25f
1:30pm 5 8 mph 1023.7mb 24f
1:20pm 6 7 mph 1023.7mb 25f
1:10pm 5 7 mph 1023.7mb 25f
1:00pm 5 6 mph 1023.7mb 24f
12:40pm 3 7 mph 1023.7mb 26f
12:30pm 5 7 mph 1023.7mb 25f
12:20pm 5 8 mph 1023.7mb 24f
12:10pm 6 9 mph 1023.7mb 24f
12:00pm 3 10 mph 1023.7mb 25f
11:40am 6 9 mph 1023.7mb 24f
11:30am 6 8 mph 1023.7mb 23f
11:20am 3 10 mph 1023.7mb 23f
11:10am 6 11 mph 1023.7mb 23f
11:00am 3 9 mph 1023.4mb 23f
10:40am 8 11 mph 1023.4mb 23f
10:30am 9 13 mph 1023.4mb 22f
10:20am 7 13 mph 1023.4mb 23f
10:10am 10 14 mph 1023.4mb 22f
10:00am 7 14 mph 1023mb 23f
9:40am 5 11 mph 1022.7mb 22f
9:30am 8 11 mph 1022.7mb 22f
9:20am 8 10 mph 1022.7mb 23f
9:10am 10 14 mph 1022.7mb 23f
9:00am 8 11 mph 1022.7mb 22f
8:40am 8 10 mph 1022.7mb 22f
8:30am 5 10 mph 1022.7mb 22f
8:20am 7 13 mph 1022.4mb 22f
8:10am 7 13 mph 1022mb 22f
8:00am 6 9 mph 1022mb 22f
7:40am 6 9 mph 1021.7mb 22f
7:30am 6 8 mph 1021.7mb 22f
7:20am 5 9 mph 1021.3mb 22f
7:10am 6 9 mph 1021.3mb 22f
7:00am 6 9 mph 1021.3mb 22f
6:40am 6 11 mph 1021mb 22f
6:30am 6 11 mph 1020.7mb 22f
6:20am 3 9 mph 1020.7mb 22f
6:10am 6 8 mph 1020.7mb 22f
6:00am 5 6 mph 1020.7mb 22f
5:40am 5 7 mph 1020.3mb 21f
5:30am 3 7 mph 1020mb 22f
5:20am 3 6 mph 1020mb 22f
5:10am 3 5 mph 1019.6mb 23f
5:00am 2 5 mph 1019.6mb 23f
4:40am 5 7 mph 1019.6mb 23f
4:30am 6 8 mph 1019.3mb 23f
4:20am 6 8 mph 1019.3mb 23f
4:10am 5 7 mph 1019mb 23f
4:00am 5 8 mph 1019mb 23f
3:40am 3 6 mph 1018.6mb 23f
3:30am 5 7 mph 1018.6mb 23f
3:20am 5 7 mph 1018.6mb 23f
3:10am 5 6 mph 1018.6mb 23f
3:00am 5 10 mph 1018.6mb 24f
2:40am 5 10 mph 1018.3mb 23f
2:30am 9 13 mph 1018.3mb 24f
2:20am 9 15 mph 1017.9mb 24f
2:10am 13 16 mph 1017.9mb 24f
2:00am 14 17 mph 1017.6mb 24f
1:40am 13 15 mph 1017.6mb 24f
1:30am 13 16 mph 1017.6mb 24f
1:20am 13 16 mph 1017.3mb 24f
1:10am 14 16 mph 1017.3mb 24f
1:00am 14 15 mph 1017.3mb 24f
12:40am 14 15 mph 1016.9mb 24f
12:30am 13 15 mph 1016.9mb 24f
12:20am 11 15 mph 1016.9mb 24f
12:10am 9 13 mph 1016.9mb 24f
12:00am 13 15 mph 1016.6mb 24f
Mon 01/26 11:40pm 10 16 mph 1016.6mb 24f
11:30pm 14 16 mph 1016.3mb 24f
11:20pm 13 15 mph 1016.3mb 24f
11:10pm 11 16 mph 1016.3mb 24f
11:00pm 14 17 mph 1016.3mb 24f
10:40pm 15 16 mph 1015.9mb 25f
10:30pm 13 16 mph 1015.9mb 25f
10:20pm 13 15 mph 1015.9mb 24f
10:10pm 14 17 mph 1015.6mb 24f
10:00pm 15 20 mph 1015.6mb 24f
9:40pm 9 16 mph 1015.6mb 24f
9:30pm 10 15 mph 1015.6mb 25f
9:20pm 10 15 mph 1015.6mb 26f
9:10pm 13 16 mph 1015.2mb 26f
9:00pm 15 18 mph 1014.9mb 26f
8:40pm 16 20 mph 1014.9mb 26f
8:30pm 16 20 mph 1014.6mb 26f
8:20pm 16 18 mph 1014.6mb 26f
8:10pm 16 18 mph 1014.6mb 26f
8:00pm 18 20 mph 1014.2mb 26f
7:40pm 14 20 mph 1014.2mb 25f
7:30pm 16 21 mph 1014.6mb 25f
7:20pm 13 18 mph 1014.6mb 25f
7:10pm 14 20 mph 1014.6mb 25f
7:00pm 17 21 mph 1014.2mb 25f
6:40pm 16 21 mph 1014.2mb 25f
6:30pm 16 20 mph 1013.9mb 25f
6:20pm 15 20 mph 1014.2mb 25f
6:10pm 15 20 mph 1013.9mb 24f
6:00pm 17 20 mph 1013.9mb 24f
5:40pm 16 20 mph 1013.5mb 24f
5:30pm 16 18 mph 1013.5mb 24f
5:20pm 16 20 mph 1013.5mb 24f
5:10pm 15 18 mph 1013.2mb 24f
5:00pm 15 17 mph 1013.2mb 24f
4:50pm 15 18 mph 1013.2mb 24f
4:40pm 16 20 mph 1013.2mb 24f
4:30pm 15 20 mph 1013.2mb 24f
4:20pm 14 17 mph 1013.2mb 24f
4:10pm 15 16 mph 1013.2mb 24f
4:00pm 15 18 mph 1013.2mb 24f
3:50pm 15 18 mph 1013.2mb 24f
3:40pm 16 17 mph 1012.9mb 24f
3:30pm 14 17 mph 1012.9mb 24f
3:20pm 14 17 mph 1012.9mb 24f
3:10pm 11 18 mph 1012.9mb 24f
3:00pm 16 20 mph 1012.5mb 24f
2:50pm 17 21 mph 1012.2mb 24f
2:40pm 18 22 mph 1012.2mb 24f
2:30pm 15 21 mph 1012.2mb 24f
2:20pm 18 22 mph 1011.9mb 24f
2:10pm 18 23 mph 1011.9mb 24f
2:00pm 20 22 mph 1011.9mb 24f
1:50pm 18 22 mph 1012.2mb 24f
1:40pm 18 21 mph 1012.2mb 24f
1:30pm 17 22 mph 1012.2mb 24f
1:20pm 18 23 mph 1012.2mb 24f
1:10pm 16 22 mph 1012.2mb 24f
1:00pm 18 22 mph 1012.5mb 24f
12:50pm 17 22 mph 1012.5mb 24f
12:40pm 16 22 mph 1012.5mb 24f
12:30pm 18 22 mph 1012.2mb 24f
12:20pm 17 22 mph 1012.5mb 24f
12:10pm 18 20 mph 1012.5mb 24f
12:00pm 17 23 mph 1012.5mb 24f
11:50am 17 22 mph 1012.5mb 24f
11:40am 18 21 mph 1012.9mb 24f
11:30am 16 21 mph 1012.9mb 23f
11:20am 17 23 mph 1012.9mb 23f
11:10am 16 21 mph 1012.9mb 23f
11:00am 15 21 mph 1012.9mb 23f
10:50am 15 23 mph 1013.2mb 23f
10:40am 18 23 mph 1012.9mb 23f
10:30am 17 22 mph 1013.2mb 23f
10:20am 16 20 mph 1013.2mb 23f
10:10am 15 18 mph 1013.2mb 23f
10:00am 15 20 mph 1013.2mb 24f
9:50am 11 15 mph 1013.2mb 24f
9:40am 10 15 mph 1013.2mb 24f
9:30am 13 14 mph 1013.5mb 24f
9:20am 13 14 mph 1013.2mb 24f
9:10am 13 16 mph 1013.2mb 24f
9:00am 14 15 mph 1013.2mb 23f
8:50am 13 15 mph 1013.2mb 23f
8:40am 14 16 mph 1013.5mb 23f
8:30am 14 16 mph 1013.5mb 23f
8:20am 15 17 mph 1013.5mb 23f
8:10am 14 17 mph 1013.5mb 23f
8:00am 14 15 mph 1013.5mb 22f
7:50am 13 14 mph 1013.9mb 22f
7:40am 11 14 mph 1013.9mb 22f
7:30am 11 17 mph 1013.9mb 22f
7:20am 15 18 mph 1013.9mb 22f
7:10am 14 17 mph 1013.9mb 22f
7:00am 14 17 mph 1013.9mb 22f
6:50am 11 14 mph 1013.9mb 22f
6:40am 14 16 mph 1014.2mb 22f
6:30am 14 16 mph 1014.2mb 22f
6:20am 14 18 mph 1014.2mb 22f
6:10am 10 15 mph 1014.2mb 21f
6:00am 11 14 mph 1014.2mb 22f
5:50am 13 16 mph 1014.2mb 21f
5:40am 13 14 mph 1014.2mb 22f
5:30am 11 13 mph 1014.6mb 21f
5:20am 10 14 mph 1014.6mb 21f
5:10am 11 15 mph 1014.6mb 21f
5:00am 13 15 mph 1014.6mb 21f
4:50am 14 16 mph 1014.6mb 21f
4:40am 14 16 mph 1014.6mb 21f
4:30am 13 15 mph 1014.9mb 21f
4:20am 9 11 mph 1014.9mb 21f
4:10am 10 11 mph 1014.9mb 21f
4:00am 9 13 mph 1015.2mb 21f
3:50am 10 13 mph 1015.2mb 21f
3:40am 9 11 mph 1015.2mb 21f
3:30am 8 11 mph 1015.2mb 21f
3:20am 9 13 mph 1015.6mb 20f
3:10am 9 11 mph 1015.6mb 20f
3:00am 10 13 mph 1015.6mb 20f
2:50am 9 11 mph 1015.6mb 20f
2:40am 10 14 mph 1015.9mb 20f
2:30am 10 11 mph 1015.9mb 20f
2:20am 9 13 mph 1015.9mb 20f
2:10am 10 13 mph 1015.9mb 20f
2:00am 10 11 mph 1015.9mb 20f
1:50am 10 11 mph 1016.3mb 20f
1:40am 10 13 mph 1016.3mb 20f
1:30am 10 13 mph 1016.6mb 20f
1:20am 9 10 mph 1016.6mb 20f
1:10am 7 10 mph 1016.6mb 20f
1:00am 5 8 mph 1016.6mb 12f
12:50am  -  2 mph 1016.6mb 11f
12:40am  -  3 mph 1016.9mb 11f
12:30am 1 7 mph 1016.6mb 12f
12:20am 6 9 mph 1016.9mb 17f
12:10am 7 9 mph 1016.9mb 14f
12:00am 3 8 mph 1016.9mb 12f
Sun 01/25 11:50pm 6 8 mph 1017.3mb 11f
11:40pm 5 6 mph 1016.9mb 9f
11:30pm 1 5 mph 1017.3mb 8f
11:20pm 5 7 mph 1017.6mb 9f
11:10pm 5 8 mph 1017.3mb 10f
11:00pm 7 9 mph 1017.3mb 10f
10:50pm 7 9 mph 1017.3mb 10f
10:40pm 8 9 mph 1017.3mb 10f
10:30pm 8 9 mph 1017.3mb 10f
10:20pm 7 9 mph 1017.6mb 11f
10:10pm 7 8 mph 1017.6mb 10f
10:00pm 7 9 mph 1017.9mb 10f
9:50pm 7 9 mph 1018.3mb 10f
9:40pm 7 8 mph 1018.3mb 10f
9:30pm 7 9 mph 1018.6mb 10f
9:20pm 7 9 mph 1019mb 11f
9:10pm 6 8 mph 1019.3mb 11f
9:00pm 7 9 mph 1019.3mb 11f
8:50pm 7 8 mph 1019.6mb 11f
8:40pm 6 8 mph 1019.3mb 11f
8:30pm 6 8 mph 1019.3mb 11f
8:20pm 6 9 mph 1019.3mb 11f
8:10pm 7 10 mph 1019.3mb 11f
8:00pm 6 10 mph 1019.3mb 12f
7:50pm 6 9 mph 1019.3mb 12f
7:40pm 5 8 mph 1019.3mb 12f
7:30pm 6 8 mph 1019.3mb 12f
7:20pm 5 9 mph 1019.3mb 12f
7:10pm 6 8 mph 1019mb 12f
7:00pm 5 6 mph 1019mb 11f
6:50pm 5 6 mph 1019mb 13f
6:40pm 3 5 mph 1018.6mb 13f
6:30pm 3
mph
1018.6mb 14f
6:20pm 3 5 mph 1018.6mb 14f
6:10pm 3 5 mph 1018.6mb 13f
6:00pm 3
mph
1018.6mb 14f
5:50pm 2 5 mph 1018.6mb 14f
5:40pm 3
mph
1018.3mb 14f
5:30pm 3
mph
1018.3mb 15f
5:20pm 1 2 mph 1018.3mb 14f
5:10pm 1 2 mph 1018.3mb 15f
5:00pm 1 2 mph 1018.3mb 16f
4:50pm  -  2 mph 1018.3mb 17f
4:40pm  -  3 mph 1018.3mb 18f
4:30pm 3 6 mph 1018.3mb 19f
4:20pm 3 7 mph 1018.3mb 19f
4:10pm 2 6 mph 1018.3mb 19f
4:00pm 3 8 mph 1018.3mb 19f
3:50pm 3 9 mph 1018.3mb 20f
3:40pm 6 8 mph 1018.3mb 20f
3:30pm 5 8 mph 1018.3mb 20f
3:20pm 3 8 mph 1017.9mb 20f
3:10pm 6 8 mph 1017.9mb 21f
3:00pm 2 6 mph 1017.9mb 21f
2:50pm 5 8 mph 1017.9mb 20f
2:40pm 5 8 mph 1017.9mb 20f
2:30pm 5 7 mph 1017.9mb 20f
2:20pm 1 7 mph 1017.9mb 21f
2:10pm 3 8 mph 1017.9mb 21f
2:00pm 5 6 mph 1017.9mb 22f
1:50pm 3 9 mph 1018.3mb 20f
1:40pm 3 7 mph 1017.9mb 22f
1:30pm 6 7 mph 1017.9mb 22f
1:20pm  -  6 mph 1017.9mb 19f
1:10pm 2 8 mph 1018.3mb 18f
1:00pm 6 8 mph 1018.3mb 18f
12:50pm 6 10 mph 1018.3mb 18f
12:40pm 8 9 mph 1018.3mb 18f
12:30pm 5 9 mph 1018.3mb 17f
12:20pm 3 9 mph 1018.3mb 19f
12:10pm 5 10 mph 1018.3mb 18f
12:00pm 5 11 mph 1018.3mb 18f
11:50am 7 13 mph 1018.3mb 18f
11:40am 7 10 mph 1018.3mb 17f
11:30am 2 10 mph 1018.3mb 16f
11:20am 5 10 mph 1018.3mb 16f
11:10am 7 10 mph 1018.3mb 16f
11:00am 6 10 mph 1017.9mb 16f
10:50am 6 16 mph 1017.9mb 16f
10:40am 7 13 mph 1017.9mb 16f
10:30am 10 14 mph 1017.9mb 15f
10:20am 7 13 mph 1017.6mb 15f
10:10am 10 14 mph 1017.6mb 15f
10:00am 5 10 mph 1017.6mb 15f
9:50am 8 13 mph 1017.6mb 15f
9:40am 7 13 mph 1017.6mb 14f
9:30am 6 14 mph 1017.3mb 15f
9:20am 7 11 mph 1017.3mb 14f
9:10am 8 16 mph 1017.3mb 14f
9:00am 10 14 mph 1016.9mb 14f
8:50am 9 15 mph 1017.3mb 14f
8:40am 7 14 mph 1016.9mb 14f
8:30am 9 14 mph 1016.6mb 13f
8:20am 7 14 mph 1016.6mb 13f
8:10am 10 16 mph 1016.3mb 13f
8:00am 7 11 mph 1016.3mb 13f
7:50am 9 20 mph 1016.3mb 13f
7:40am 9 17 mph 1015.9mb 13f
7:30am 10 16 mph 1015.9mb 13f
7:20am 7 11 mph 1015.9mb 12f
7:10am 9 14 mph 1015.9mb 12f
7:00am 7 15 mph 1015.9mb 12f
6:50am 6 11 mph 1015.6mb 12f
6:40am 8 11 mph 1015.6mb 12f
6:30am 7 14 mph 1015.6mb 12f
6:20am 9 16 mph 1015.2mb 12f
6:10am 8 11 mph 1015.2mb 11f
6:00am 7 10 mph 1015.2mb 11f
5:50am 5 13 mph 1015.2mb 11f
5:40am 6 15 mph 1014.6mb 11f
5:30am 7 14 mph 1014.6mb 11f
5:20am 7 14 mph 1014.2mb 11f
5:10am 9 15 mph 1014.2mb 11f
5:00am 8 16 mph 1014.2mb 12f
4:50am 10 17 mph 1013.9mb 12f
4:40am 9 14 mph 1013.9mb 12f
4:30am 8 15 mph 1013.5mb 12f
4:20am 8 15 mph 1013.5mb 13f
4:10am 8 17 mph 1013.5mb 13f
4:00am 11 20 mph 1013.2mb 13f
3:50am 9 20 mph 1013.2mb 14f
3:40am 8 18 mph 1013.2mb 14f
3:30am 10 16 mph 1013.2mb 14f
3:20am 9 16 mph 1012.9mb 15f
3:10am 8 17 mph 1013.2mb 15f
3:00am 14 20 mph 1012.9mb 16f
2:50am 11 15 mph 1012.9mb 16f
2:40am 9 17 mph 1012.5mb 17f
2:30am 9 14 mph 1012.5mb 17f
2:20am 13 17 mph 1012.5mb 17f
2:10am 10 14 mph 1012.2mb 17f
2:00am 9 17 mph 1012.2mb 18f
1:50am 9 14 mph 1012.2mb 18f
1:40am 3 15 mph 1011.9mb 18f
1:30am 8 16 mph 1011.5mb 19f
1:20am 7 10 mph 1010.8mb 19f
1:10am 6 9 mph 1010.8mb 19f
1:00am 7 13 mph 1010.5mb 19f
12:50am 5 14 mph 1010.5mb 19f
12:40am 8 14 mph 1010.2mb 19f
12:30am 6 8 mph 1010.2mb 19f
12:20am 6 13 mph 1009.8mb 20f
12:10am 8 14 mph 1009.5mb 20f
12:00am 7 11 mph 1009.5mb 20f
Sat 01/24 11:50pm 6 11 mph 1009.5mb 20f
11:40pm 7 9 mph 1009.5mb 20f
11:30pm 6 8 mph 1009.5mb 20f
11:20pm 7 10 mph 1009.5mb 20f
11:10pm 5 11 mph 1009.1mb 20f
11:00pm 6 9 mph 1009.1mb 20f
10:50pm 5 8 mph 1009.1mb 20f
10:40pm 3 9 mph 1008.8mb 20f
10:30pm 7 13 mph 1008.5mb 20f
10:20pm 5 10 mph 1008.5mb 20f
10:10pm 3 11 mph 1008.1mb 20f
10:00pm 8 10 mph 1008.5mb 20f
9:50pm 5 13 mph 1008.5mb 20f
9:40pm 7 18 mph 1008.1mb 20f
9:30pm 10 22 mph 1007.8mb 21f
9:20pm 8 18 mph 1007.8mb 21f
9:10pm 15 22 mph 1007.5mb 21f
9:00pm 8 20 mph 1007.5mb 21f
8:50pm 8 14 mph 1007.5mb 22f
8:40pm 7 16 mph 1007.5mb 22f
8:30pm 9 18 mph 1007.5mb 22f
8:20pm 10 16 mph 1007.1mb 22f
8:10pm 8 16 mph 1007.1mb 22f
8:00pm 10 17 mph 1007.1mb 22f
7:50pm 8 18 mph 1007.1mb 22f
7:40pm 10 23 mph 1006.8mb 22f
7:30pm 10 18 mph 1006.8mb 22f
7:20pm 11 18 mph 1006.8mb 22f
7:10pm 9 25 mph 1006.4mb 22f
7:00pm 10 22 mph 1006.1mb 22f
6:50pm 9 22 mph 1006.1mb 22f
6:40pm 11 20 mph 1006.1mb 22f
6:30pm 11 21 mph 1005.8mb 23f
6:20pm 13 18 mph 1005.4mb 23f
6:10pm 13 20 mph 1005.4mb 23f
6:00pm 15 22 mph 1005.4mb 23f
5:50pm 6 23 mph 1005.4mb 24f
5:40pm 10 17 mph 1005.4mb 24f
5:30pm 10 26 mph 1005.1mb 24f
5:20pm 11 22 mph 1005.1mb 24f
5:10pm 10 18 mph 1004.7mb 25f
5:00pm 11 20 mph 1004.4mb 25f
4:50pm 9 17 mph 1004.4mb 25f
4:40pm 6 18 mph 1004.4mb 26f
4:30pm 10 21 mph 1003.7mb 26f
4:20pm 10 18 mph 1003.7mb 26f
4:10pm 11 20 mph 1003.4mb 27f
4:00pm 11 17 mph 1003.4mb 27f
3:50pm 8 16 mph 1003mb 28f
3:40pm 11 17 mph 1002.7mb 28f
3:30pm 11 20 mph 1002.7mb 28f
3:20pm 11 17 mph 1002.4mb 29f
3:10pm 10 20 mph 1002mb 28f
3:00pm 6 15 mph 1002mb 29f
2:50pm 10 20 mph 1001.7mb 29f
2:40pm 13 22 mph 1001.7mb 30f
2:30pm 11 18 mph 1001.4mb 30f
2:20pm 9 16 mph 1001.4mb 31f
2:10pm 9 18 mph 1001mb 32f
2:00pm 8 16 mph 1001mb 32f
1:50pm 9 15 mph 1001mb 33f
1:40pm 8 15 mph 1000.7mb 33f
1:30pm 7 13 mph 1000.7mb 33f
1:20pm 8 15 mph 1000.7mb 33f
1:10pm 9 15 mph 1001mb 33f
1:00pm 8 16 mph 1000.7mb 34f
12:50pm 9 16 mph 1000.7mb 35f
12:40pm 7 15 mph 1000.7mb 34f
12:30pm 8 13 mph 1000.7mb 35f
12:20pm 11 16 mph 1000.7mb 35f
12:10pm 9 13 mph 1000.7mb 35f
12:00pm 6 10 mph 1000.7mb 34f
11:50am 8 16 mph 1000.7mb 35f
11:40am 9 11 mph 1000.7mb 35f
11:30am 7 9 mph 1000.7mb 36f
11:20am 7 10 mph 1000.7mb 35f
11:10am 8 11 mph 1001mb 34f
11:00am 9 13 mph 1001mb 35f
10:50am 10 14 mph 1001.4mb 35f
10:40am 11 15 mph 1001.4mb 35f
10:30am 10 13 mph 1001.4mb 34f
10:20am 7 11 mph 1001.4mb 33f
10:10am 11 14 mph 1001.4mb 33f
10:00am 11 14 mph 1001mb 33f
9:50am 8 11 mph 1001.4mb 33f
9:40am 8 13 mph 1001mb 33f
9:30am 9 10 mph 1001mb 33f
9:20am 7 8 mph 1001.4mb 33f
9:10am 5 7 mph 1001mb 34f
9:00am 5 8 mph 1001.4mb 33f
8:50am 7 14 mph 1001.4mb 33f
8:40am 11 15 mph 1001.4mb 33f
8:30am 6 8 mph 1001.4mb 32f
8:20am 7 8 mph 1001.7mb 32f
8:10am 7 8 mph 1001.4mb 31f
8:00am 7 8 mph 1001.4mb 31f
7:50am 7
mph
1001.7mb 31f
7:40am 7 9 mph 1001.7mb 31f
7:30am 9 10 mph 1001.7mb 31f
7:20am 8 9 mph 1002mb 31f
7:10am 6 14 mph 1001.7mb 31f
7:00am 11 16 mph 1001.7mb 32f
6:50am 13 18 mph 1002mb 33f
6:40am 15 20 mph 1001.7mb 33f
6:30am 14 17 mph 1001.7mb 32f
6:20am 15 17 mph 1001.7mb 32f
6:10am 15 17 mph 1001.7mb 33f
6:00am 15 18 mph 1001.7mb 33f
5:50am 15 18 mph 1002mb 33f
5:40am 15 18 mph 1001.7mb 33f
5:30am 15 17 mph 1001.7mb 33f
5:20am 15 18 mph 1001.7mb 34f
5:10am 15 18 mph 1001.7mb 34f
5:00am 15 17 mph 1001.4mb 34f
4:50am 11 13 mph 1001.7mb 32f
4:40am 6 9 mph 1001.7mb 32f
4:30am 8 10 mph 1002mb 32f
4:20am 7 9 mph 1002mb 32f
4:10am 7 9 mph 1002mb 32f
4:00am 6 7 mph 1002mb 32f
3:50am 5 8 mph 1002mb 32f
3:40am 7 13 mph 1002.4mb 32f
3:30am 10 11 mph 1002.4mb 33f
3:20am 8 9 mph 1002.4mb 31f
3:10am 7 9 mph 1002.4mb 32f
3:00am 7 9 mph 1002.4mb 32f
2:50am 7 8 mph 1002.7mb 32f
2:40am 6 7 mph 1003mb 31f
2:30am 6 8 mph 1003mb 31f
2:20am 8 9 mph 1003mb 31f
2:10am 8 10 mph 1003mb 31f
2:00am 9 10 mph 1003.4mb 32f
1:50am 9 11 mph 1003.4mb 32f
1:40am 10 13 mph 1003.4mb 32f
1:30am 11 13 mph 1003.4mb 31f
1:20am 13 17 mph 1003.4mb 31f
1:10am 14 17 mph 1003.4mb 31f
1:00am 15 17 mph 1003.4mb 31f
12:50am 15 17 mph 1003.4mb 31f
12:40am 15 17 mph 1003.4mb 31f
12:30am 14 17 mph 1003.4mb 31f
12:20am 15 18 mph 1003.4mb 32f
12:10am 16 18 mph 1003.7mb 32f
12:00am 16 20 mph 1003.7mb 32f
Fri 01/23 11:50pm 17 20 mph 1004.1mb 32f
11:40pm 15 18 mph 1004.1mb 32f
11:30pm 16 20 mph 1004.1mb 31f
11:20pm 15 18 mph 1004.1mb 31f
11:10pm 16 21 mph 1004.1mb 31f